Terminal Aerodrome Forecast
Issued by NWS

Home | Current Version | Previous Version | Text Only | Print | Product List | Glossary On
Versions: 1 2 3 4 5 6 7 8 9 10 11 12 13 14 15 16 17 18 19 20
000
FTUS43 KMQT 271956 AAB
TAFCMX
TAF AMD
KCMX 271956Z 2720/2818 18005KT P6SM SCT020 BKN040
      TEMPO 2720/2722 2SM -SN BKN025
     FM280000 12005KT P6SM BKN070
     FM281000 16006KT 5SM -SN OVC050
     FM281100 16005KT 3SM -SN OVC035
     FM281200 15005KT 2SM -SN OVC020
     FM281300 16004KT 1 1/2SM -RASN OVC015
     FM281400 16003KT 1SM -RA OVC010
     FM281600 12004KT 1SM -RASN OVC008=

USA.gov is the U.S. government's official web portal to all federal, state and local government web resources and services.